Time,TemperatureF,DewpointF,PressureIn,WindDirection,WindDirectionDegrees,WindSpeedMPH,WindSpeedGustMPH,Humidity,HourlyPrecipIn,Conditions,Clouds,dailyrainin,SoftwareType,DateUTC
2013-04-10 00:00:00,68.4,52.0,29.75,North,0,0.0,0.0,56,0.00,,,0.00,WUHU216HW,2013-04-10 04:00:00,
2013-04-10 00:01:00,68.4,52.6,29.75,North,0,0.0,0.0,57,0.00,,,0.00,WUHU216HW,2013-04-10 04:01:00,
2013-04-10 00:07:00,68.4,52.6,29.75,North,0,0.0,0.0,57,0.00,,,0.00,WUHU216HW,2013-04-10 04:07:00,
2013-04-10 00:12:00,68.6,52.8,29.75,North,0,0.0,0.0,57,0.00,,,0.00,WUHU216HW,2013-04-10 04:12:00,
2013-04-10 00:17:00,68.8,52.4,29.75,North,0,0.0,0.0,56,0.00,,,0.00,WUHU216HW,2013-04-10 04:17:00,
2013-04-10 00:22:00,68.6,52.8,29.75,North,0,0.0,0.0,57,0.00,,,0.00,WUHU216HW,2013-04-10 04:22:00,
2013-04-10 00:27:00,68.6,52.8,29.74,North,0,0.0,0.0,57,0.00,,,0.00,WUHU216HW,2013-04-10 04:27:00,
2013-04-10 00:32:00,68.4,52.6,29.74,North,0,0.0,0.0,57,0.00,,,0.00,WUHU216HW,2013-04-10 04:32:00,
2013-04-10 00:38:00,68.0,53.2,29.74,North,0,0.0,0.0,59,0.00,,,0.00,WUHU216HW,2013-04-10 04:38:00,
2013-04-10 00:43:00,68.0,52.7,29.74,North,0,0.0,0.0,58,0.00,,,0.00,WUHU216HW,2013-04-10 04:43:00,
2013-04-10 00:48:00,67.7,53.3,29.74,North,0,0.0,0.0,60,0.00,,,0.00,WUHU216HW,2013-04-10 04:48:00,
2013-04-10 00:53:00,67.7,53.3,29.74,North,0,0.0,0.0,60,0.00,,,0.00,WUHU216HW,2013-04-10 04:53:00,
2013-04-10 00:58:00,67.7,52.8,29.73,North,0,0.0,0.0,59,0.00,,,0.00,WUHU216HW,2013-04-10 04:58:00,
2013-04-10 01:03:00,67.7,53.3,29.73,North,0,0.0,0.0,60,0.00,,,0.00,WUHU216HW,2013-04-10 05:03:00,
2013-04-10 01:08:00,67.7,53.3,29.72,North,0,0.0,0.0,60,0.00,,,0.00,WUHU216HW,2013-04-10 05:08:00,
2013-04-10 01:14:00,67.9,53.5,29.72,North,0,0.0,0.0,60,0.00,,,0.00,WUHU216HW,2013-04-10 05:14:00,
2013-04-10 01:19:00,67.7,52.8,29.72,North,0,0.0,0.0,59,0.00,,,0.00,WUHU216HW,2013-04-10 05:19:00,
2013-04-10 01:24:00,67.9,53.5,29.72,North,0,0.0,0.0,60,0.00,,,0.00,WUHU216HW,2013-04-10 05:24:00,
2013-04-10 01:29:00,67.7,52.8,29.72,North,0,0.0,0.0,59,0.00,,,0.00,WUHU216HW,2013-04-10 05:29:00,
2013-04-10 01:34:00,67.7,52.8,29.72,North,0,0.0,0.0,59,0.00,,,0.00,WUHU216HW,2013-04-10 05:34:00,
2013-04-10 01:39:00,67.7,53.3,29.73,North,0,0.0,0.0,60,0.00,,,0.00,WUHU216HW,2013-04-10 05:39:00,
2013-04-10 01:44:00,67.5,53.2,29.72,North,0,0.0,0.0,60,0.00,,,0.00,WUHU216HW,2013-04-10 05:44:00,
2013-04-10 01:49:00,67.3,53.0,29.72,North,0,0.0,0.0,60,0.00,,,0.00,WUHU216HW,2013-04-10 05:49:00,
2013-04-10 01:54:00,67.3,53.0,29.72,North,0,0.0,0.0,60,0.00,,,0.00,WUHU216HW,2013-04-10 05:54:00,
2013-04-10 01:59:00,67.1,53.3,29.72,North,0,0.0,0.0,61,0.00,,,0.00,WUHU216HW,2013-04-10 05:59:00,
2013-04-10 02:04:00,67.0,52.7,29.72,North,0,0.0,0.0,60,0.00,,,0.00,WUHU216HW,2013-04-10 06:04:00,
2013-04-10 02:09:00,66.8,52.5,29.72,North,0,0.0,0.0,60,0.00,,,0.00,WUHU216HW,2013-04-10 06:09:00,
2013-04-10 02:14:00,66.8,52.9,29.72,North,0,0.0,0.0,61,0.00,,,0.00,WUHU216HW,2013-04-10 06:14:00,
2013-04-10 02:19:00,66.6,51.8,29.71,North,0,0.0,0.0,59,0.00,,,0.00,WUHU216HW,2013-04-10 06:19:00,
2013-04-10 02:24:00,66.4,52.2,29.71,North,0,0.0,0.0,60,0.00,,,0.00,WUHU216HW,2013-04-10 06:24:00,
2013-04-10 02:29:00,66.2,52.0,29.71,North,0,0.0,0.0,60,0.00,,,0.00,WUHU216HW,2013-04-10 06:29:00,
2013-04-10 02:35:00,66.1,52.3,29.71,North,0,0.0,0.0,61,0.00,,,0.00,WUHU216HW,2013-04-10 06:35:00,
2013-04-10 02:40:00,65.9,52.1,29.71,North,0,0.0,0.0,61,0.00,,,0.00,WUHU216HW,2013-04-10 06:40:00,
2013-04-10 02:45:00,65.9,52.9,29.70,North,0,0.0,0.0,63,0.00,,,0.00,WUHU216HW,2013-04-10 06:45:00,
2013-04-10 02:50:00,65.7,53.2,29.70,North,0,0.0,0.0,64,0.00,,,0.00,WUHU216HW,2013-04-10 06:50:00,
2013-04-10 02:55:00,65.7,52.8,29.70,North,0,0.0,0.0,63,0.00,,,0.00,WUHU216HW,2013-04-10 06:55:00,
2013-04-10 03:00:00,65.5,53.0,29.70,North,0,0.0,0.0,64,0.00,,,0.00,WUHU216HW,2013-04-10 07:00:00,
2013-04-10 03:05:00,65.3,52.8,29.70,North,0,0.0,0.0,64,0.00,,,0.00,WUHU216HW,2013-04-10 07:05:00,
2013-04-10 03:10:00,65.2,53.1,29.70,North,0,0.0,0.0,65,0.00,,,0.00,WUHU216HW,2013-04-10 07:10:00,
2013-04-10 03:15:00,65.2,52.7,29.70,North,0,0.0,0.0,64,0.00,,,0.00,WUHU216HW,2013-04-10 07:15:00,
2013-04-10 03:20:00,65.3,53.3,29.70,North,0,0.0,0.0,65,0.00,,,0.00,WUHU216HW,2013-04-10 07:20:00,
2013-04-10 03:25:00,65.5,53.0,29.69,North,0,0.0,0.0,64,0.00,,,0.00,WUHU216HW,2013-04-10 07:25:00,
2013-04-10 03:30:00,65.5,53.0,29.69,North,0,0.0,0.0,64,0.00,,,0.00,WUHU216HW,2013-04-10 07:30:00,
2013-04-10 03:35:00,65.5,53.4,29.69,North,0,0.0,0.0,65,0.00,,,0.00,WUHU216HW,2013-04-10 07:35:00,
2013-04-10 03:40:00,65.3,53.3,29.70,North,0,0.0,0.0,65,0.00,,,0.00,WUHU216HW,2013-04-10 07:40:00,
2013-04-10 03:45:00,65.5,53.4,29.70,North,0,0.0,0.0,65,0.00,,,0.00,WUHU216HW,2013-04-10 07:45:00,
2013-04-10 03:50:00,65.3,52.8,29.70,North,0,0.0,0.0,64,0.00,,,0.00,WUHU216HW,2013-04-10 07:50:00,
2013-04-10 03:56:00,65.3,52.8,29.70,North,0,0.0,0.0,64,0.00,,,0.00,WUHU216HW,2013-04-10 07:56:00,
2013-04-10 04:01:00,65.3,52.8,29.70,North,0,0.0,0.0,64,0.00,,,0.00,WUHU216HW,2013-04-10 08:01:00,
2013-04-10 04:06:00,65.2,52.2,29.70,North,0,0.0,0.0,63,0.00,,,0.00,WUHU216HW,2013-04-10 08:06:00,
2013-04-10 04:11:00,65.0,52.5,29.71,North,0,0.0,0.0,64,0.00,,,0.00,WUHU216HW,2013-04-10 08:11:00,
2013-04-10 04:16:00,64.6,52.6,29.70,North,0,0.0,0.0,65,0.00,,,0.00,WUHU216HW,2013-04-10 08:16:00,
2013-04-10 04:22:00,64.3,51.8,29.71,North,0,0.0,0.0,64,0.00,,,0.00,WUHU216HW,2013-04-10 08:22:00,
2013-04-10 04:27:00,64.3,51.8,29.71,North,0,0.0,0.0,64,0.00,,,0.00,WUHU216HW,2013-04-10 08:27:00,
2013-04-10 04:32:00,64.1,52.0,29.71,North,0,0.0,0.0,65,0.00,,,0.00,WUHU216HW,2013-04-10 08:32:00,
2013-04-10 04:37:00,63.7,51.7,29.72,North,0,0.0,0.0,65,0.00,,,0.00,WUHU216HW,2013-04-10 08:37:00,
2013-04-10 04:42:00,63.7,52.1,29.72,North,0,0.0,0.0,66,0.00,,,0.00,WUHU216HW,2013-04-10 08:42:00,
2013-04-10 04:47:00,63.5,52.4,29.72,North,0,0.0,0.0,67,0.00,,,0.00,WUHU216HW,2013-04-10 08:47:00,
2013-04-10 04:52:00,63.4,52.2,29.72,North,0,0.0,0.0,67,0.00,,,0.00,WUHU216HW,2013-04-10 08:52:00,
2013-04-10 04:57:00,63.4,52.7,29.73,North,0,0.0,0.0,68,0.00,,,0.00,WUHU216HW,2013-04-10 08:57:00,
2013-04-10 05:02:00,63.7,52.6,29.73,North,0,0.0,0.0,67,0.00,,,0.00,WUHU216HW,2013-04-10 09:02:00,
2013-04-10 05:07:00,63.5,52.4,29.73,North,0,0.0,0.0,67,0.00,,,0.00,WUHU216HW,2013-04-10 09:07:00,
2013-04-10 05:12:00,63.2,52.0,29.74,North,0,0.0,0.0,67,0.00,,,0.00,WUHU216HW,2013-04-10 09:12:00,
2013-04-10 05:17:00,63.2,52.0,29.74,North,0,0.0,0.0,67,0.00,,,0.00,WUHU216HW,2013-04-10 09:17:00,
2013-04-10 05:22:00,63.4,52.2,29.73,North,0,0.0,0.0,67,0.00,,,0.00,WUHU216HW,2013-04-10 09:22:00,
2013-04-10 05:27:00,63.4,52.2,29.73,North,0,0.0,0.0,67,0.00,,,0.00,WUHU216HW,2013-04-10 09:27:00,
2013-04-10 05:32:00,63.2,51.6,29.73,North,0,0.0,0.0,66,0.00,,,0.00,WUHU216HW,2013-04-10 09:32:00,
2013-04-10 05:38:00,63.0,52.3,29.73,North,0,0.0,0.0,68,0.00,,,0.00,WUHU216HW,2013-04-10 09:38:00,
2013-04-10 05:43:00,62.6,51.5,29.74,North,0,0.0,0.0,67,0.00,,,0.00,WUHU216HW,2013-04-10 09:43:00,
2013-04-10 05:48:00,62.3,51.6,29.75,North,0,0.0,0.0,68,0.00,,,0.00,WUHU216HW,2013-04-10 09:48:00,
2013-04-10 05:53:00,61.9,51.3,29.74,North,0,0.0,0.0,68,0.00,,,0.00,WUHU216HW,2013-04-10 09:53:00,
2013-04-10 05:58:00,61.7,51.1,29.75,North,0,0.0,0.0,68,0.00,,,0.00,WUHU216HW,2013-04-10 09:58:00,
2013-04-10 06:03:00,61.7,51.1,29.75,North,0,0.0,0.0,68,0.00,,,0.00,WUHU216HW,2013-04-10 10:03:00,
2013-04-10 06:08:00,61.6,51.4,29.75,North,0,0.0,0.0,69,0.00,,,0.00,WUHU216HW,2013-04-10 10:08:00,
2013-04-10 06:13:00,61.6,51.4,29.75,North,0,0.0,0.0,69,0.00,,,0.00,WUHU216HW,2013-04-10 10:13:00,
2013-04-10 06:18:00,61.6,51.4,29.75,North,0,0.0,0.0,69,0.00,,,0.00,WUHU216HW,2013-04-10 10:18:00,
2013-04-10 06:23:00,61.2,51.9,29.76,North,0,0.0,0.0,71,0.00,,,0.00,WUHU216HW,2013-04-10 10:23:00,
2013-04-10 06:28:00,61.2,51.5,29.76,North,0,0.0,0.0,70,0.00,,,0.00,WUHU216HW,2013-04-10 10:28:00,
2013-04-10 06:33:00,61.4,50.4,29.77,North,0,0.0,0.0,67,0.00,,,0.00,WUHU216HW,2013-04-10 10:33:00,
2013-04-10 06:39:00,61.4,50.0,29.77,North,0,0.0,0.0,66,0.00,,,0.00,WUHU216HW,2013-04-10 10:39:00,
2013-04-10 06:44:00,61.4,50.0,29.77,North,0,0.0,0.0,66,0.00,,,0.00,WUHU216HW,2013-04-10 10:44:00,
2013-04-10 06:49:00,61.2,49.8,29.77,North,0,0.0,0.0,66,0.00,,,0.00,WUHU216HW,2013-04-10 10:49:00,
2013-04-10 06:54:00,61.0,49.2,29.77,North,0,0.0,0.0,65,0.00,,,0.00,WUHU216HW,2013-04-10 10:54:00,
2013-04-10 06:59:00,61.2,49.8,29.78,North,0,0.0,0.0,66,0.00,,,0.00,WUHU216HW,2013-04-10 10:59:00,
2013-04-10 07:04:00,61.2,49.8,29.78,North,0,0.0,0.0,66,0.00,,,0.00,WUHU216HW,2013-04-10 11:04:00,
2013-04-10 07:09:00,61.4,49.5,29.79,North,0,0.0,0.0,65,0.00,,,0.00,WUHU216HW,2013-04-10 11:09:00,
2013-04-10 07:14:00,61.6,50.1,29.79,North,0,0.0,0.0,66,0.00,,,0.00,WUHU216HW,2013-04-10 11:14:00,
2013-04-10 07:19:00,61.6,49.7,29.78,North,0,0.0,0.0,65,0.00,,,0.00,WUHU216HW,2013-04-10 11:19:00,
2013-04-10 07:24:00,61.7,49.9,29.79,North,0,0.0,0.0,65,0.00,,,0.00,WUHU216HW,2013-04-10 11:24:00,
2013-04-10 07:29:00,61.7,49.9,29.79,North,0,0.0,0.0,65,0.00,,,0.00,WUHU216HW,2013-04-10 11:29:00,
2013-04-10 07:34:00,61.9,50.4,29.79,North,0,0.0,0.0,66,0.00,,,0.00,WUHU216HW,2013-04-10 11:34:00,
2013-04-10 07:39:00,61.7,49.9,29.79,North,0,0.0,0.0,65,0.00,,,0.00,WUHU216HW,2013-04-10 11:39:00,
2013-04-10 07:45:00,61.7,49.9,29.79,North,0,0.0,0.0,65,0.00,,,0.00,WUHU216HW,2013-04-10 11:45:00,
2013-04-10 07:50:00,61.9,50.1,29.79,North,0,0.0,0.0,65,0.00,,,0.00,WUHU216HW,2013-04-10 11:50:00,
2013-04-10 07:55:00,62.1,50.2,29.79,North,0,0.0,0.0,65,0.00,,,0.00,WUHU216HW,2013-04-10 11:55:00,
2013-04-10 08:00:00,62.3,50.3,29.79,North,0,0.0,0.0,65,0.00,,,0.00,WUHU216HW,2013-04-10 12:00:00,
2013-04-10 08:05:00,62.5,50.5,29.79,North,0,0.0,0.0,65,0.00,,,0.00,WUHU216HW,2013-04-10 12:05:00,
2013-04-10 08:10:00,62.6,50.7,29.80,North,0,0.0,0.0,65,0.00,,,0.00,WUHU216HW,2013-04-10 12:10:00,
2013-04-10 08:15:00,62.6,50.7,29.80,North,0,0.0,0.0,65,0.00,,,0.00,WUHU216HW,2013-04-10 12:15:00,
2013-04-10 08:20:00,62.6,51.1,29.80,North,0,0.0,0.0,66,0.00,,,0.00,WUHU216HW,2013-04-10 12:20:00,
2013-04-10 08:25:00,62.6,50.7,29.80,North,0,0.0,0.0,65,0.00,,,0.00,WUHU216HW,2013-04-10 12:25:00,
2013-04-10 08:30:00,63.0,51.0,29.80,North,0,0.0,0.0,65,0.00,,,0.00,WUHU216HW,2013-04-10 12:30:00,
2013-04-10 08:35:00,63.0,51.0,29.80,North,0,0.0,0.0,65,0.00,,,0.00,WUHU216HW,2013-04-10 12:35:00,
2013-04-10 08:41:00,63.2,50.3,29.81,North,0,0.0,0.0,63,0.00,,,0.00,WUHU216HW,2013-04-10 12:41:00,
2013-04-10 08:46:00,63.7,50.9,29.80,North,0,0.0,0.0,63,0.00,,,0.00,WUHU216HW,2013-04-10 12:46:00,
2013-04-10 08:51:00,64.1,51.2,29.80,North,0,0.0,0.0,63,0.00,,,0.00,WUHU216HW,2013-04-10 12:51:00,
2013-04-10 08:56:00,64.4,50.7,29.80,North,0,0.0,0.0,61,0.00,,,0.00,WUHU216HW,2013-04-10 12:56:00,
2013-04-10 09:01:00,65.2,51.4,29.80,North,0,0.0,0.0,61,0.00,,,0.00,WUHU216HW,2013-04-10 13:01:00,
2013-04-10 09:06:00,65.3,51.6,29.79,North,0,0.0,0.0,61,0.00,,,0.00,WUHU216HW,2013-04-10 13:06:00,
2013-04-10 09:12:00,65.7,51.5,29.79,North,0,0.0,0.0,60,0.00,,,0.00,WUHU216HW,2013-04-10 13:12:00,
2013-04-10 09:17:00,66.2,52.0,29.79,North,0,0.0,0.0,60,0.00,,,0.00,WUHU216HW,2013-04-10 13:17:00,
2013-04-10 09:22:00,67.0,52.2,29.79,North,0,0.0,0.0,59,0.00,,,0.00,WUHU216HW,2013-04-10 13:22:00,
2013-04-10 09:34:00,67.9,52.0,29.79,North,0,0.0,0.0,57,0.00,,,0.00,WUHU216HW,2013-04-10 13:34:00,
2013-04-10 09:39:00,68.0,52.2,29.79,North,0,0.0,0.0,57,0.00,,,0.00,WUHU216HW,2013-04-10 13:39:00,
2013-04-10 09:44:00,68.4,52.6,29.79,North,0,0.0,0.0,57,0.00,,,0.00,WUHU216HW,2013-04-10 13:44:00,
2013-04-10 09:49:00,68.8,52.4,29.79,North,0,0.0,0.0,56,0.00,,,0.00,WUHU216HW,2013-04-10 13:49:00,
2013-04-10 09:54:00,69.3,52.4,29.79,North,0,0.0,0.0,55,0.00,,,0.00,WUHU216HW,2013-04-10 13:54:00,
2013-04-10 09:59:00,69.7,52.7,29.79,North,0,0.0,0.0,55,0.00,,,0.00,WUHU216HW,2013-04-10 13:59:00,
2013-04-10 10:04:00,70.0,53.1,29.78,North,0,0.0,0.0,55,0.00,,,0.00,WUHU216HW,2013-04-10 14:04:00,
2013-04-10 10:09:00,69.8,52.9,29.78,North,0,0.0,0.0,55,0.00,,,0.00,WUHU216HW,2013-04-10 14:09:00,
2013-04-10 10:14:00,70.2,53.3,29.78,North,0,0.0,0.0,55,0.00,,,0.00,WUHU216HW,2013-04-10 14:14:00,
2013-04-10 10:20:00,70.7,54.7,29.78,North,0,0.0,0.0,57,0.00,,,0.00,WUHU216HW,2013-04-10 14:20:00,
2013-04-10 10:25:00,71.1,54.5,29.78,North,0,0.0,0.0,56,0.00,,,0.00,WUHU216HW,2013-04-10 14:25:00,
2013-04-10 10:30:00,71.8,55.2,29.77,North,0,0.0,0.0,56,0.00,,,0.00,WUHU216HW,2013-04-10 14:30:00,
2013-04-10 10:35:00,72.2,55.5,29.77,North,0,0.0,0.0,56,0.00,,,0.00,WUHU216HW,2013-04-10 14:35:00,
2013-04-10 10:40:00,72.0,55.4,29.77,North,0,0.0,0.0,56,0.00,,,0.00,WUHU216HW,2013-04-10 14:40:00,
2013-04-10 10:45:00,72.2,55.5,29.77,North,0,0.0,0.0,56,0.00,,,0.00,WUHU216HW,2013-04-10 14:45:00,
2013-04-10 10:50:00,72.7,56.0,29.77,North,0,0.0,0.0,56,0.00,,,0.00,WUHU216HW,2013-04-10 14:50:00,
2013-04-10 10:55:00,73.3,56.0,29.77,North,0,0.0,0.0,55,0.00,,,0.00,WUHU216HW,2013-04-10 14:55:00,
2013-04-10 11:00:00,73.8,56.0,29.77,North,0,0.0,0.0,54,0.00,,,0.00,WUHU216HW,2013-04-10 15:00:00,
2013-04-10 11:05:00,74.2,56.3,29.77,North,0,0.0,0.0,54,0.00,,,0.00,WUHU216HW,2013-04-10 15:05:00,
2013-04-10 11:10:00,75.1,57.2,29.77,North,0,0.0,0.0,54,0.00,,,0.00,WUHU216HW,2013-04-10 15:10:00,
2013-04-10 11:15:00,75.6,57.8,29.77,North,0,0.0,0.0,54,0.00,,,0.00,WUHU216HW,2013-04-10 15:15:00,
2013-04-10 11:21:00,76.3,56.9,29.77,North,0,0.0,0.0,51,0.00,,,0.00,WUHU216HW,2013-04-10 15:21:00,
2013-04-10 11:26:00,76.9,57.4,29.77,North,0,0.0,0.0,51,0.00,,,0.00,WUHU216HW,2013-04-10 15:26:00,
2013-04-10 11:31:00,77.0,57.6,29.77,North,0,0.0,0.0,51,0.00,,,0.00,WUHU216HW,2013-04-10 15:31:00,
2013-04-10 11:36:00,77.4,57.9,29.76,North,0,0.0,0.0,51,0.00,,,0.00,WUHU216HW,2013-04-10 15:36:00,
2013-04-10 11:41:00,77.9,57.9,29.76,North,0,0.0,0.0,50,0.00,,,0.00,WUHU216HW,2013-04-10 15:41:00,
2013-04-10 11:46:00,78.5,57.8,29.76,North,0,0.0,0.0,49,0.00,,,0.00,WUHU216HW,2013-04-10 15:46:00,
2013-04-10 11:52:00,79.2,58.4,29.77,North,0,0.0,0.0,49,0.00,,,0.00,WUHU216HW,2013-04-10 15:52:00,
2013-04-10 11:57:00,79.4,58.0,29.77,North,0,0.0,0.0,48,0.00,,,0.00,WUHU216HW,2013-04-10 15:57:00,
2013-04-10 12:02:00,79.7,58.2,29.76,North,0,0.0,0.0,48,0.00,,,0.00,WUHU216HW,2013-04-10 16:02:00,
2013-04-10 12:07:00,80.1,58.0,29.76,North,0,0.0,0.0,47,0.00,,,0.00,WUHU216HW,2013-04-10 16:07:00,
2013-04-10 12:12:00,80.3,56.9,29.76,North,0,0.0,0.0,45,0.00,,,0.00,WUHU216HW,2013-04-10 16:12:00,
2013-04-10 12:17:00,80.3,58.1,29.76,North,0,0.0,0.0,47,0.00,,,0.00,WUHU216HW,2013-04-10 16:17:00,
2013-04-10 12:22:00,80.3,56.9,29.75,North,0,0.0,0.0,45,0.00,,,0.00,WUHU216HW,2013-04-10 16:22:00,
2013-04-10 12:27:00,80.5,58.3,29.75,North,0,0.0,0.0,47,0.00,,,0.00,WUHU216HW,2013-04-10 16:27:00,
2013-04-10 12:32:00,81.0,58.8,29.75,North,0,0.0,0.0,47,0.00,,,0.00,WUHU216HW,2013-04-10 16:32:00,
2013-04-10 12:38:00,81.5,59.3,29.75,North,0,0.0,0.0,47,0.00,,,0.00,WUHU216HW,2013-04-10 16:38:00,
2013-04-10 12:43:00,82.1,58.5,29.75,North,0,0.0,0.0,45,0.00,,,0.00,WUHU216HW,2013-04-10 16:43:00,
2013-04-10 12:48:00,83.2,60.1,29.74,North,0,0.0,0.0,46,0.00,,,0.00,WUHU216HW,2013-04-10 16:48:00,
2013-04-10 12:53:00,83.9,59.6,29.74,North,0,0.0,0.0,44,0.00,,,0.00,WUHU216HW,2013-04-10 16:53:00,
2013-04-10 12:58:00,84.6,60.3,29.74,North,0,0.0,0.0,44,0.00,,,0.00,WUHU216HW,2013-04-10 16:58:00,
2013-04-10 13:03:00,85.0,59.3,29.74,North,0,0.0,0.0,42,0.00,,,0.00,WUHU216HW,2013-04-10 17:03:00,
2013-04-10 13:08:00,84.8,59.1,29.74,North,0,0.0,0.0,42,0.00,,,0.00,WUHU216HW,2013-04-10 17:08:00,
2013-04-10 13:13:00,85.0,58.7,29.74,North,0,0.0,0.0,41,0.00,,,0.00,WUHU216HW,2013-04-10 17:13:00,
2013-04-10 13:18:00,85.3,59.1,29.74,North,0,0.0,0.0,41,0.00,,,0.00,WUHU216HW,2013-04-10 17:18:00,
2013-04-10 13:23:00,85.7,59.3,29.74,North,0,0.0,0.0,41,0.00,,,0.00,WUHU216HW,2013-04-10 17:23:00,
2013-04-10 13:28:00,85.5,58.6,29.74,North,0,0.0,0.0,40,0.00,,,0.00,WUHU216HW,2013-04-10 17:28:00,
2013-04-10 13:33:00,85.3,59.7,29.74,North,0,0.0,0.0,42,0.00,,,0.00,WUHU216HW,2013-04-10 17:33:00,
2013-04-10 13:39:00,85.1,58.9,29.73,North,0,0.0,0.0,41,0.00,,,0.00,WUHU216HW,2013-04-10 17:39:00,
2013-04-10 13:44:00,84.8,57.2,29.72,North,0,0.0,0.0,39,0.00,,,0.00,WUHU216HW,2013-04-10 17:44:00,
2013-04-10 13:49:00,85.3,58.4,29.72,North,0,0.0,0.0,40,0.00,,,0.00,WUHU216HW,2013-04-10 17:49:00,
2013-04-10 13:54:00,85.5,57.0,29.72,North,0,0.0,0.0,38,0.00,,,0.00,WUHU216HW,2013-04-10 17:54:00,
2013-04-10 13:59:00,85.7,58.0,29.72,North,0,0.0,0.0,39,0.00,,,0.00,WUHU216HW,2013-04-10 17:59:00,
2013-04-10 14:04:00,85.7,58.0,29.72,North,0,0.0,0.0,39,0.00,,,0.00,WUHU216HW,2013-04-10 18:04:00,
2013-04-10 14:09:00,85.7,58.0,29.72,North,0,0.0,0.0,39,0.00,,,0.00,WUHU216HW,2013-04-10 18:09:00,
2013-04-10 14:14:00,85.9,58.9,29.72,North,0,0.0,0.0,40,0.00,,,0.00,WUHU216HW,2013-04-10 18:14:00,
2013-04-10 14:19:00,86.0,58.2,29.72,North,0,0.0,0.0,39,0.00,,,0.00,WUHU216HW,2013-04-10 18:19:00,
2013-04-10 14:24:00,85.5,57.8,29.72,North,0,0.0,0.0,39,0.00,,,0.00,WUHU216HW,2013-04-10 18:24:00,
2013-04-10 14:29:00,85.3,57.6,29.72,North,0,0.0,0.0,39,0.00,,,0.00,WUHU216HW,2013-04-10 18:29:00,
2013-04-10 14:34:00,85.0,58.1,29.72,North,0,0.0,0.0,40,0.00,,,0.00,WUHU216HW,2013-04-10 18:34:00,
2013-04-10 14:39:00,85.3,58.4,29.71,North,0,0.0,0.0,40,0.00,,,0.00,WUHU216HW,2013-04-10 18:39:00,
2013-04-10 14:44:00,86.2,59.9,29.71,North,0,0.0,0.0,41,0.00,,,0.00,WUHU216HW,2013-04-10 18:44:00,
2013-04-10 14:49:00,86.9,58.2,29.71,North,0,0.0,0.0,38,0.00,,,0.00,WUHU216HW,2013-04-10 18:49:00,
2013-04-10 14:55:00,86.8,57.3,29.71,North,0,0.0,0.0,37,0.00,,,0.00,WUHU216HW,2013-04-10 18:55:00,
2013-04-10 15:00:00,85.9,58.1,29.71,North,0,0.0,0.0,39,0.00,,,0.00,WUHU216HW,2013-04-10 19:00:00,
2013-04-10 15:05:00,85.3,57.6,29.71,North,0,0.0,0.0,39,0.00,,,0.00,WUHU216HW,2013-04-10 19:05:00,
2013-04-10 15:10:00,84.8,57.9,29.71,North,0,0.0,0.0,40,0.00,,,0.00,WUHU216HW,2013-04-10 19:10:00,
2013-04-10 15:15:00,84.6,57.8,29.71,North,0,0.0,0.0,40,0.00,,,0.00,WUHU216HW,2013-04-10 19:15:00,
2013-04-10 15:20:00,85.0,57.2,29.70,North,0,0.0,0.0,39,0.00,,,0.00,WUHU216HW,2013-04-10 19:20:00,
2013-04-10 15:25:00,85.0,57.2,29.70,North,0,0.0,0.0,39,0.00,,,0.00,WUHU216HW,2013-04-10 19:25:00,
2013-04-10 15:30:00,84.4,56.0,29.69,North,0,0.0,0.0,38,0.00,,,0.00,WUHU216HW,2013-04-10 19:30:00,
2013-04-10 15:35:00,83.5,56.8,29.69,North,0,0.0,0.0,40,0.00,,,0.00,WUHU216HW,2013-04-10 19:35:00,
2013-04-10 15:40:00,82.8,56.7,29.69,North,0,0.0,0.0,41,0.00,,,0.00,WUHU216HW,2013-04-10 19:40:00,
2013-04-10 15:45:00,82.6,56.6,29.69,North,0,0.0,0.0,41,0.00,,,0.00,WUHU216HW,2013-04-10 19:45:00,
2013-04-10 15:50:00,82.1,56.1,29.69,North,0,0.0,0.0,41,0.00,,,0.00,WUHU216HW,2013-04-10 19:50:00,
2013-04-10 15:55:00,80.8,55.5,29.68,North,0,0.0,0.0,42,0.00,,,0.00,WUHU216HW,2013-04-10 19:55:00,
2013-04-10 16:00:00,79.9,54.7,29.69,North,0,0.0,0.0,42,0.00,,,0.00,WUHU216HW,2013-04-10 20:00:00,
2013-04-10 16:05:00,79.4,54.9,29.68,North,0,0.0,0.0,43,0.00,,,0.00,WUHU216HW,2013-04-10 20:05:00,
2013-04-10 16:11:00,78.7,54.3,29.68,North,0,0.0,0.0,43,0.00,,,0.00,WUHU216HW,2013-04-10 20:11:00,
2013-04-10 16:16:00,77.9,54.2,29.69,North,0,0.0,0.0,44,0.00,,,0.00,WUHU216HW,2013-04-10 20:16:00,
2013-04-10 16:21:00,77.2,53.6,29.68,North,0,0.0,0.0,44,0.00,,,0.00,WUHU216HW,2013-04-10 20:21:00,
2013-04-10 16:26:00,76.7,53.6,29.69,North,0,0.0,0.0,45,0.00,,,0.00,WUHU216HW,2013-04-10 20:26:00,
2013-04-10 16:31:00,76.3,53.4,29.69,North,0,0.0,0.0,45,0.00,,,0.00,WUHU216HW,2013-04-10 20:31:00,
2013-04-10 16:36:00,76.0,53.6,29.69,North,0,0.0,0.0,46,0.00,,,0.00,WUHU216HW,2013-04-10 20:36:00,
2013-04-10 16:41:00,75.8,54.1,29.69,North,0,0.0,0.0,47,0.00,,,0.00,WUHU216HW,2013-04-10 20:41:00,
2013-04-10 16:47:00,75.6,53.9,29.69,North,0,0.0,0.0,47,0.00,,,0.00,WUHU216HW,2013-04-10 20:47:00,
2013-04-10 16:52:00,75.4,53.7,29.69,North,0,0.0,0.0,47,0.00,,,0.00,WUHU216HW,2013-04-10 20:52:00,
2013-04-10 16:57:00,74.9,53.8,29.69,North,0,0.0,0.0,48,0.00,,,0.00,WUHU216HW,2013-04-10 20:57:00,
2013-04-10 17:02:00,74.5,53.6,29.69,North,0,0.0,0.0,48,0.00,,,0.00,WUHU216HW,2013-04-10 21:02:00,
2013-04-10 17:07:00,74.3,53.9,29.69,North,0,0.0,0.0,49,0.00,,,0.00,WUHU216HW,2013-04-10 21:07:00,
2013-04-10 17:12:00,74.9,54.5,29.69,North,0,0.0,0.0,49,0.00,,,0.00,WUHU216HW,2013-04-10 21:12:00,
2013-04-10 17:17:00,74.9,53.8,29.68,North,0,0.0,0.0,48,0.00,,,0.00,WUHU216HW,2013-04-10 21:17:00,
2013-04-10 17:22:00,74.3,53.9,29.69,North,0,0.0,0.0,49,0.00,,,0.00,WUHU216HW,2013-04-10 21:22:00,
2013-04-10 17:27:00,73.4,53.6,29.68,North,0,0.0,0.0,50,0.00,,,0.00,WUHU216HW,2013-04-10 21:27:00,
2013-04-10 17:32:00,72.5,52.8,29.69,North,0,0.0,0.0,50,0.00,,,0.00,WUHU216HW,2013-04-10 21:32:00,
2013-04-10 17:37:00,71.8,52.7,29.69,North,0,0.0,0.0,51,0.00,,,0.00,WUHU216HW,2013-04-10 21:37:00,
2013-04-10 17:42:00,71.5,52.4,29.69,North,0,0.0,0.0,51,0.00,,,0.00,WUHU216HW,2013-04-10 21:42:00,
2013-04-10 17:47:00,71.3,52.2,29.69,North,0,0.0,0.0,51,0.00,,,0.00,WUHU216HW,2013-04-10 21:47:00,
2013-04-10 17:52:00,71.1,52.6,29.69,North,0,0.0,0.0,52,0.00,,,0.00,WUHU216HW,2013-04-10 21:52:00,
2013-04-10 17:57:00,70.7,52.2,29.68,North,0,0.0,0.0,52,0.00,,,0.00,WUHU216HW,2013-04-10 21:57:00,
2013-04-10 18:03:00,70.2,52.2,29.68,North,0,0.0,0.0,53,0.00,,,0.00,WUHU216HW,2013-04-10 22:03:00,
2013-04-10 18:08:00,69.8,51.4,29.68,North,0,0.0,0.0,52,0.00,,,0.00,WUHU216HW,2013-04-10 22:08:00,
2013-04-10 18:13:00,69.5,51.6,29.68,North,0,0.0,0.0,53,0.00,,,0.00,WUHU216HW,2013-04-10 22:13:00,
2013-04-10 18:18:00,69.3,51.9,29.67,North,0,0.0,0.0,54,0.00,,,0.00,WUHU216HW,2013-04-10 22:18:00,
2013-04-10 18:23:00,68.8,51.4,29.67,North,0,0.0,0.0,54,0.00,,,0.00,WUHU216HW,2013-04-10 22:23:00,
2013-04-10 18:28:00,68.4,51.0,29.68,North,0,0.0,0.0,54,0.00,,,0.00,WUHU216HW,2013-04-10 22:28:00,
2013-04-10 18:33:00,68.0,50.8,29.68,North,0,0.0,0.0,54,0.00,,,0.00,WUHU216HW,2013-04-10 22:33:00,
2013-04-10 18:38:00,67.9,50.6,29.68,North,0,0.0,0.0,54,0.00,,,0.00,WUHU216HW,2013-04-10 22:38:00,
2013-04-10 18:43:00,67.5,50.8,29.68,North,0,0.0,0.0,55,0.00,,,0.00,WUHU216HW,2013-04-10 22:43:00,
2013-04-10 18:48:00,67.1,50.4,29.68,North,0,0.0,0.0,55,0.00,,,0.00,WUHU216HW,2013-04-10 22:48:00,
2013-04-10 18:53:00,66.8,51.0,29.71,North,0,0.0,0.0,57,0.00,,,0.00,WUHU216HW,2013-04-10 22:53:00,
2013-04-10 18:58:00,66.2,51.6,29.73,North,0,0.0,0.0,59,0.00,,,0.00,WUHU216HW,2013-04-10 22:58:00,
2013-04-10 19:03:00,65.7,51.5,29.72,North,0,0.0,0.0,60,0.00,,,0.00,WUHU216HW,2013-04-10 23:03:00,
2013-04-10 19:08:00,65.5,51.8,29.74,North,0,0.0,0.0,61,0.00,,,0.00,WUHU216HW,2013-04-10 23:08:00,
2013-04-10 19:13:00,65.5,53.0,29.74,North,0,0.0,0.0,64,0.00,,,0.00,WUHU216HW,2013-04-10 23:13:00,
2013-04-10 19:18:00,65.2,53.1,29.72,North,0,0.0,0.0,65,0.00,,,0.00,WUHU216HW,2013-04-10 23:18:00,
2013-04-10 19:23:00,65.0,52.9,29.73,North,0,0.0,0.0,65,0.00,,,0.00,WUHU216HW,2013-04-10 23:23:00,
2013-04-10 19:29:00,64.8,52.8,29.75,North,0,0.0,0.0,65,0.00,,,0.00,WUHU216HW,2013-04-10 23:29:00,
2013-04-10 19:34:00,64.6,54.3,29.73,North,0,0.0,0.0,69,0.00,,,0.00,WUHU216HW,2013-04-10 23:34:00,
2013-04-10 19:39:00,62.6,53.1,29.69,North,0,0.0,0.0,71,0.00,,,0.00,WUHU216HW,2013-04-10 23:39:00,
2013-04-10 19:44:00,61.6,54.6,29.69,North,0,0.0,0.0,78,0.00,,,0.00,WUHU216HW,2013-04-10 23:44:00,
2013-04-10 19:50:00,61.2,53.7,29.68,North,0,0.0,0.0,76,0.00,,,0.00,WUHU216HW,2013-04-10 23:50:00,
2013-04-10 19:55:00,61.0,53.8,29.67,North,0,0.0,0.0,77,0.00,,,0.00,WUHU216HW,2013-04-10 23:55:00,
2013-04-10 20:00:00,60.8,54.0,29.69,North,0,0.0,0.0,78,0.00,,,0.00,WUHU216HW,2013-04-11 00:00:00,
2013-04-10 20:05:00,60.8,55.1,29.76,North,0,0.0,0.0,81,0.00,,,0.00,WUHU216HW,2013-04-11 00:05:00,
2013-04-10 20:10:00,60.7,54.9,29.71,North,0,0.0,0.0,81,0.00,,,0.00,WUHU216HW,2013-04-11 00:10:00,
2013-04-10 20:15:00,60.1,54.4,29.67,North,0,0.0,0.0,81,0.00,,,0.00,WUHU216HW,2013-04-11 00:15:00,
2013-04-10 20:20:00,59.9,54.8,29.67,North,0,0.0,0.0,83,0.00,,,0.00,WUHU216HW,2013-04-11 00:20:00,
2013-04-10 20:25:00,59.8,54.6,29.66,North,0,0.0,0.0,83,0.00,,,0.00,WUHU216HW,2013-04-11 00:25:00,
2013-04-10 20:30:00,59.8,55.3,29.67,North,0,0.0,0.0,85,0.00,,,0.00,WUHU216HW,2013-04-11 00:30:00,
2013-04-10 20:35:00,59.6,54.7,29.69,North,0,0.0,0.0,84,0.00,,,0.00,WUHU216HW,2013-04-11 00:35:00,
2013-04-10 20:40:00,59.4,55.5,29.69,North,0,0.0,0.0,87,0.00,,,0.00,WUHU216HW,2013-04-11 00:40:00,
2013-04-10 20:45:00,59.4,54.9,29.71,North,0,0.0,0.0,85,0.00,,,0.00,WUHU216HW,2013-04-11 00:45:00,
2013-04-10 20:50:00,59.4,54.9,29.70,North,0,0.0,0.0,85,0.00,,,0.00,WUHU216HW,2013-04-11 00:50:00,
2013-04-10 20:55:00,59.4,55.5,29.70,North,0,0.0,0.0,87,0.00,,,0.00,WUHU216HW,2013-04-11 00:55:00,
2013-04-10 21:01:00,59.2,55.4,29.69,North,0,0.0,0.0,87,0.00,,,0.00,WUHU216HW,2013-04-11 01:01:00,
2013-04-10 21:06:00,59.0,55.5,29.69,North,0,0.0,0.0,88,0.00,,,0.00,WUHU216HW,2013-04-11 01:06:00,
2013-04-10 21:11:00,59.0,55.2,29.70,North,0,0.0,0.0,87,0.00,,,0.00,WUHU216HW,2013-04-11 01:11:00,
2013-04-10 21:16:00,59.2,56.0,29.70,North,0,0.0,0.0,89,0.00,,,0.00,WUHU216HW,2013-04-11 01:16:00,
2013-04-10 21:21:00,58.9,55.0,29.67,North,0,0.0,0.0,87,0.00,,,0.00,WUHU216HW,2013-04-11 01:21:00,
2013-04-10 21:27:00,58.9,55.6,29.67,North,0,0.0,0.0,89,0.00,,,0.00,WUHU216HW,2013-04-11 01:27:00,
2013-04-10 21:32:00,58.7,54.8,29.66,North,0,0.0,0.0,87,0.00,,,0.00,WUHU216HW,2013-04-11 01:32:00,
2013-04-10 21:37:00,58.7,54.8,29.64,North,0,0.0,0.0,87,0.00,,,0.00,WUHU216HW,2013-04-11 01:37:00,
2013-04-10 21:42:00,58.5,54.6,29.65,North,0,0.0,0.0,87,0.00,,,0.00,WUHU216HW,2013-04-11 01:42:00,
2013-04-10 21:47:00,58.5,55.6,29.66,North,0,0.0,0.0,90,0.00,,,0.00,WUHU216HW,2013-04-11 01:47:00,
2013-04-10 21:52:00,58.3,55.3,29.66,North,0,0.0,0.0,90,0.00,,,0.00,WUHU216HW,2013-04-11 01:52:00,
2013-04-10 21:57:00,58.7,56.0,29.67,North,0,0.0,0.0,91,0.00,,,0.00,WUHU216HW,2013-04-11 01:57:00,
2013-04-10 22:02:00,59.2,56.6,29.75,North,0,0.0,0.0,91,0.00,,,0.00,WUHU216HW,2013-04-11 02:02:00,
2013-04-10 22:07:00,59.6,57.2,29.77,North,0,0.0,0.0,92,0.00,,,0.00,WUHU216HW,2013-04-11 02:07:00,
2013-04-10 22:12:00,59.6,57.0,29.79,North,0,0.0,0.0,91,0.00,,,0.00,WUHU216HW,2013-04-11 02:12:00,
2013-04-10 22:17:00,59.8,57.2,29.79,North,0,0.0,0.0,91,0.00,,,0.00,WUHU216HW,2013-04-11 02:17:00,
2013-04-10 22:22:00,59.8,57.4,29.78,North,0,0.0,0.0,92,0.00,,,0.00,WUHU216HW,2013-04-11 02:22:00,
2013-04-10 22:28:00,59.9,57.3,29.77,North,0,0.0,0.0,91,0.00,,,0.00,WUHU216HW,2013-04-11 02:28:00,
2013-04-10 22:32:00,59.8,57.2,29.77,North,0,0.0,0.0,91,0.00,,,0.00,WUHU216HW,2013-04-11 02:32:00,
2013-04-10 22:38:00,59.9,57.3,29.77,North,0,0.0,0.0,91,0.00,,,0.00,WUHU216HW,2013-04-11 02:38:00,
2013-04-10 22:43:00,59.8,57.2,29.77,North,0,0.0,0.0,91,0.00,,,0.00,WUHU216HW,2013-04-11 02:43:00,
2013-04-10 22:48:00,59.9,57.3,29.77,North,0,0.0,0.0,91,0.00,,,0.00,WUHU216HW,2013-04-11 02:48:00,
2013-04-10 22:53:00,59.9,57.3,29.77,North,0,0.0,0.0,91,0.00,,,0.00,WUHU216HW,2013-04-11 02:53:00,
2013-04-10 22:58:00,59.9,57.3,29.77,North,0,0.0,0.0,91,0.00,,,0.00,WUHU216HW,2013-04-11 02:58:00,
2013-04-10 23:03:00,59.8,57.2,29.76,North,0,0.0,0.0,91,0.00,,,0.00,WUHU216HW,2013-04-11 03:03:00,
2013-04-10 23:08:00,59.8,56.9,29.75,North,0,0.0,0.0,90,0.00,,,0.00,WUHU216HW,2013-04-11 03:08:00,
2013-04-10 23:13:00,59.8,56.9,29.75,North,0,0.0,0.0,90,0.00,,,0.00,WUHU216HW,2013-04-11 03:13:00,
2013-04-10 23:18:00,59.8,56.9,29.74,North,0,0.0,0.0,90,0.00,,,0.00,WUHU216HW,2013-04-11 03:18:00,
2013-04-10 23:23:00,59.8,56.9,29.72,North,0,0.0,0.0,90,0.00,,,0.00,WUHU216HW,2013-04-11 03:23:00,
2013-04-10 23:28:00,59.8,57.4,29.70,North,0,0.0,0.0,92,0.00,,,0.00,WUHU216HW,2013-04-11 03:28:00,
2013-04-10 23:33:00,59.8,57.2,29.71,North,0,0.0,0.0,91,0.00,,,0.00,WUHU216HW,2013-04-11 03:33:00,
2013-04-10 23:38:00,59.8,57.2,29.72,North,0,0.0,0.0,91,0.00,,,0.00,WUHU216HW,2013-04-11 03:38:00,
2013-04-10 23:43:00,59.8,57.4,29.72,North,0,0.0,0.0,92,0.00,,,0.00,WUHU216HW,2013-04-11 03:43:00,
2013-04-10 23:48:00,59.9,58.0,29.72,North,0,0.0,0.0,93,0.00,,,0.00,WUHU216HW,2013-04-11 03:48:00,
2013-04-10 23:53:00,59.9,57.6,29.71,North,0,0.0,0.0,92,0.00,,,0.00,WUHU216HW,2013-04-11 03:53:00,
2013-04-10 23:59:00,60.1,58.2,29.71,North,0,0.0,0.0,93,0.00,,,0.00,WUHU216HW,2013-04-11 03:59:00,